• Join FlightAware (Why Join?)
  • Login
  • US Flag 
05:55AM EDT


 

Airport Tracker/Info


-or-


 

Live Flight TrackerFlight Track Log ✈ CTL13 ✈ 08-Apr-2013 ✈ KBKL - KEYE

Flight Track Log - Related Links

Times and Time Zones

All times are in EDT time to prevent confusion due to time zone crossing. See the CTL13 flight status page for this flight to view local times or setup timezone preferences in your user account.

Time Position Orientation Groundspeed Altitude Reporting Facility
EDT Latitude Longitude Course Direction KTS MPH feet Rate Location/Type
06:42PM 41.5125 -81.6950 305° West 129 148 800  Level Cleveland Center
06:43PM 41.5269 -81.7231 305° West 143 165 1,400 720 Climbing Cleveland Center
06:44PM 41.5494 -81.7678 304° West 146 168 2,100 540 Climbing Cleveland Center
06:45PM 41.5656 -81.8153 294° West 139 160 2,600 540 Climbing Cleveland Center
06:46PM 41.5817 -81.8739 290° West 136 157 3,400 600 Climbing Cleveland Center
06:47PM 41.5875 -81.9183 280° West 117 135 4,000 540 Climbing Cleveland Center
06:48PM 41.5725 -81.9514 239° Southwest 110 127 4,500 420 Climbing Cleveland Center
06:49PM 41.5575 -81.9817 237° Southwest 114 131 4,800 360 Climbing Cleveland Center
06:50PM 41.5422 -82.0203 242° Southwest 113 130 5,200 360 Climbing Cleveland Center
06:51PM 41.5272 -82.0558 241° Southwest 112 129 5,600 300 Climbing Cleveland Center
06:52PM 41.5122 -82.0944 243° Southwest 117 135 5,900 360 Climbing Cleveland Center
06:53PM 41.4972 -82.1300 241° Southwest 116 133 6,400 420 Climbing Cleveland Center
06:54PM 41.4819 -82.1658 240° Southwest 113 130 6,800 420 Climbing Cleveland Center
06:55PM 41.4669 -82.2014 241° Southwest 112 129 7,300 60 Climbing Cleveland Center
06:57PM 41.4231 -82.2584 241° Southwest  Level FlightAware Approximate
07:04PM 41.3063 -82.5399 239° Southwest  Level FlightAware Approximate
07:05PM 41.2887 -82.5794 239° Southwest  Level FlightAware Approximate
07:06PM 41.2711 -82.6189 239° Southwest  Level FlightAware Approximate
07:07PM 41.2535 -82.6583 239° Southwest  Level FlightAware Approximate
07:08PM 41.2359 -82.6977 239° Southwest  Level FlightAware Approximate
07:09PM 41.2183 -82.7371 239° Southwest  Level FlightAware Approximate
07:10PM 41.2006 -82.7765 239° Southwest  Level FlightAware Approximate
07:11PM 41.1829 -82.8159 239° Southwest  Level FlightAware Approximate
07:11PM 41.2133 -82.8281 237° Southwest 122 140 8,000  Level Indianapolis Center
07:12PM 41.1653 -82.8552 239° Southwest  Level FlightAware Approximate
07:12PM 41.1953 -82.8681 239° Southwest 125 144 8,000  Level Indianapolis Center
07:13PM 41.1476 -82.8945 239° Southwest  Level FlightAware Approximate
07:13PM 41.1792 -82.9069 241° Southwest 120 138 8,100  Level Indianapolis Center
07:14PM 41.1299 -82.9338 239° Southwest  Level FlightAware Approximate
07:14PM 41.1592 -82.9522 240° Southwest 120 138 8,100  Level Indianapolis Center
07:15PM 41.1121 -82.9731 239° Southwest  Level FlightAware Approximate
07:15PM 41.1425 -82.9931 242° Southwest 123 142 8,100  Level Indianapolis Center
07:16PM 41.0940 -83.0120 237° Southwest  Level FlightAware Approximate
07:16PM 41.1253 -83.0317 239° Southwest 122 140 8,100  Level Indianapolis Center
07:17PM 41.1092 -83.0706 241° Southwest 121 139 8,100  Level Indianapolis Center
07:18PM 41.0933 -83.1128 244° Southwest 124 143 8,100 -60 Level Indianapolis Center
07:19PM 41.0739 -83.1528 237° Southwest 127 146 8,000  Descending Indianapolis Center
07:20PM 41.0569 -83.1933 241° Southwest 126 145 8,100  Climbing Indianapolis Center
07:21PM 41.0392 -83.2331 239° Southwest 125 144 8,000 -60 Descending Indianapolis Center
07:22PM 41.0203 -83.2706 236° Southwest 123 142 8,000  Level Indianapolis Center
07:23PM 41.0008 -83.3153 240° Southwest 120 138 8,100  Climbing Indianapolis Center
07:24PM 40.9836 -83.3547 240° Southwest 122 140 8,000  Descending Indianapolis Center
07:25PM 40.9669 -83.3944 241° Southwest 123 142 8,100  Climbing Indianapolis Center
07:26PM 40.9489 -83.4336 239° Southwest 123 142 8,100  Level Indianapolis Center
07:27PM 40.9317 -83.4719 239° Southwest 121 139 8,100  Level Indianapolis Center
07:28PM 40.9139 -83.5114 239° Southwest 119 137 8,100  Level Indianapolis Center
07:29PM 40.8986 -83.5494 242° Southwest 117 135 8,100  Level Indianapolis Center
07:30PM 40.8819 -83.5892 241° Southwest 121 139 8,100 -60 Level Indianapolis Center
07:32PM 40.8633 -83.6292 238° Southwest 126 145 8,000 -60 Descending Indianapolis Center
07:33PM 40.8458 -83.6694 240° Southwest 125 144 8,000  Level Indianapolis Center
07:34PM 40.8275 -83.7092 239° Southwest 125 144 8,000  Level Indianapolis Center
07:35PM 40.8100 -83.7494 240° Southwest 125 144 8,000  Level Indianapolis Center
07:36PM 40.7928 -83.7864 238° Southwest 120 138 8,000  Level Indianapolis Center
07:37PM 40.7728 -83.8308 239° Southwest 119 137 8,000  Level Indianapolis Center
07:38PM 40.7550 -83.8692 239° Southwest 122 140 8,000  Level Indianapolis Center
07:39PM 40.7367 -83.9072 238° Southwest 122 140 8,000  Level Indianapolis Center
07:40PM 40.7181 -83.9467 238° Southwest 126 145 8,000  Level Indianapolis Center
07:41PM 40.7017 -83.9872 242° Southwest 125 144 8,000  Level Indianapolis Center
07:42PM 40.6872 -84.0278 245° Southwest 122 140 8,000  Level Indianapolis Center
07:43PM 40.6728 -84.0694 245° Southwest 123 142 8,000  Level Indianapolis Center
07:44PM 40.6575 -84.1100 244° Southwest 123 142 8,000 60 Level Indianapolis Center
07:44PM 40.6489 -84.1364 247° West 123 142 8,100  Climbing Indianapolis Center
07:45PM 40.6422 -84.1514 240° Southwest 124 143 8,000  Descending Indianapolis Center
07:45PM 40.6311 -84.1753 239° Southwest 126 145 8,100 -120 Climbing Indianapolis Center
07:46PM 40.6258 -84.1922 248° West 125 144 7,900 -120 Descending Indianapolis Center
07:46PM 40.6150 -84.2200 243° Southwest 126 145 8,000  Climbing Indianapolis Center
07:47PM 40.6067 -84.2414 243° Southwest 127 146 7,900  Descending Indianapolis Center
07:47PM 40.5969 -84.2642 241° Southwest 128 147 8,000  Climbing Indianapolis Center
07:48PM 40.5911 -84.2844 249° West 128 147 7,900  Descending Indianapolis Center
07:48PM 40.5831 -84.3064 244° Southwest 128 147 8,000 -120 Climbing Indianapolis Center
07:49PM 40.5764 -84.3275 247° West 128 147 7,800 -120 Descending Indianapolis Center
07:49PM 40.5669 -84.3508 242° Southwest 129 148 7,900  Climbing Indianapolis Center
07:50PM 40.5600 -84.3711 246° West 131 151 7,800  Descending Indianapolis Center
07:50PM 40.5511 -84.3928 242° Southwest 131 151 7,900 60 Climbing Indianapolis Center
07:51PM 40.5453 -84.4136 250° West 128 147 7,900 60 Level Indianapolis Center
07:51PM 40.5372 -84.4347 243° Southwest 127 146 8,000  Climbing Indianapolis Center
07:52PM 40.5306 -84.4564 248° West 127 146 7,900  Descending Indianapolis Center
07:52PM 40.5233 -84.4767 245° Southwest 127 146 8,000  Climbing Indianapolis Center
07:53PM 40.5147 -84.5003 244° Southwest 131 151 7,900  Descending Indianapolis Center
07:53PM 40.5053 -84.5208 239° Southwest 166 191 8,000 60 Climbing Indianapolis Center
07:54PM 40.4975 -84.5447 247° West 134 154 8,000  Level Indianapolis Center
07:54PM 40.4914 -84.5603 243° Southwest 123 142 8,000  Level Indianapolis Center
07:55PM 40.4831 -84.5867 247° West 127 146 8,000 60 Level Indianapolis Center
07:55PM 40.4756 -84.6019 237° Southwest 130 150 8,100  Climbing Indianapolis Center
07:56PM 40.4658 -84.6306 246° West 132 152 8,000 -120 Descending Indianapolis Center
07:56PM 40.4572 -84.6461 234° Southwest 140 161 8,000  Level Indianapolis Center
07:57PM 40.4489 -84.6744 249° West 134 154 8,000  Level Indianapolis Center
07:58PM 40.4403 -84.6986 245° Southwest 135 155 8,000  Level Indianapolis Center
07:58PM 40.4331 -84.7192 245° Southwest 134 154 8,000  Level Indianapolis Center
07:58PM 40.4267 -84.7378 246° West 132 152 8,000  Level Indianapolis Center
07:59PM 40.4147 -84.7711 245° Southwest 134 154 8,000  Level Indianapolis Center
08:00PM 40.4081 -84.7844 237° Southwest 131 151 8,000  Level Indianapolis Center
08:00PM 40.3975 -84.8144 245° Southwest 134 154 8,000  Level Indianapolis Center
08:01PM 40.3758 -84.8675 242° Southwest 133 153 8,100  Climbing Indianapolis Center
08:02PM 40.3631 -84.9022 244° Southwest 134 154 8,100 -60 Level Indianapolis Center
08:03PM 40.3458 -84.9511 245° Southwest 135 155 8,000  Descending Indianapolis Center
08:04PM 40.3317 -84.9886 244° Southwest 134 154 8,100  Climbing Indianapolis Center
08:05PM 40.3147 -85.0322 243° Southwest 134 154 8,100  Level Indianapolis Center
08:06PM 40.2828 -85.0586 212° Southwest 157 181 8,100 -60 Level Indianapolis Center
08:07PM 40.2308 -85.0544 176° South 165 190 8,000 -60 Descending Indianapolis Center
08:08PM 40.1836 -85.0503 176° South 166 191 8,000  Level Indianapolis Center
08:09PM 40.1394 -85.0586 188° South 161 185 8,100  Climbing Indianapolis Center
08:10PM 40.0939 -85.0650 186° South 162 186 8,100 -60 Level Indianapolis Center
08:11PM 40.0522 -85.0811 196° South 158 182 8,000 -60 Descending Indianapolis Center
08:13PM 40.0336 -85.1192 237° Southwest 140 161 8,000  Level Indianapolis Center
08:14PM 40.0267 -85.1675 259° West 134 154 8,100  Climbing Indianapolis Center
08:15PM 40.0181 -85.2133 256° West 131 151 8,100 -60 Level Indianapolis Center
08:16PM 40.0106 -85.2600 258° West 130 150 8,000 -60 Descending Indianapolis Center
08:17PM 40.0039 -85.3069 260° West 131 151 8,000 -300 Level Indianapolis Center
08:18PM 39.9956 -85.3567 258° West 138 159 7,400 -660 Descending Indianapolis Center
08:19PM 39.9839 -85.4203 257° West 151 174 6,700 -660 Descending Indianapolis Center
08:20PM 39.9733 -85.4758 256° West 155 178 6,100 -660 Descending Indianapolis Center
08:21PM 39.9628 -85.5331 256° West 158 182 5,400 -600 Descending Indianapolis Center
08:22PM 39.9531 -85.5908 258° West 161 185 4,900 -540 Descending Indianapolis Center
08:23PM 39.9433 -85.6475 257° West 160 184 4,300 -480 Descending Indianapolis Center
08:24PM 39.9347 -85.7008 258° West 155 178 4,000 -360 Descending Indianapolis Center
08:25PM 39.9272 -85.7517 259° West 148 170 3,600 -420 Descending Indianapolis Center
08:26PM 39.9169 -85.8044 256° West 147 169 3,200 -300 Descending Indianapolis Center
08:27PM 39.9067 -85.8564 256° West 148 170 3,000 -120 Descending Indianapolis Center
08:28PM 39.8975 -85.9042 256° West 142 163 3,000  Level Indianapolis Center
08:29PM 39.8881 -85.9597 258° West 137 158 3,000 -180 Level Indianapolis Center
08:30PM 39.8786 -86.0072 255° West 134 154 2,700 -300 Descending Indianapolis Center
08:31PM 39.8683 -86.0561 255° West 137 158 2,500 -300 Descending Indianapolis Center
08:32PM 39.8608 -86.1067 259° West 139 160 2,200 -360 Descending Indianapolis Center
08:33PM 39.8564 -86.1597 264° West 144 166 1,800 -420 Descending Indianapolis Center